createdAt,value
2019-06-09T00:01:32.433Z,53.80
2019-06-09T00:03:48.703Z,53.80
2019-06-09T00:06:17.624Z,53.70
2019-06-09T00:08:48.088Z,53.90
2019-06-09T00:11:17.467Z,53.70
2019-06-09T00:13:47.266Z,53.80
2019-06-09T00:16:17.971Z,53.70
2019-06-09T00:18:48.235Z,53.60
2019-06-09T00:21:15.647Z,53.70
2019-06-09T00:23:43.911Z,53.70
2019-06-09T00:26:12.773Z,53.70
2019-06-09T00:28:41.107Z,53.90
2019-06-09T00:31:42.776Z,53.70
2019-06-09T00:33:57.421Z,53.70
2019-06-09T00:36:27.788Z,53.70
2019-06-09T00:38:57.764Z,53.70
2019-06-09T00:41:43.611Z,53.80
2019-06-09T00:44:12.093Z,53.90
2019-06-09T00:46:40.703Z,53.80
2019-06-09T00:49:10.471Z,53.80
2019-06-09T00:51:38.942Z,53.70
2019-06-09T00:54:10.278Z,53.70
2019-06-09T00:56:37.775Z,53.70
2019-06-09T00:59:11.432Z,54.20
2019-06-09T01:01:38.047Z,53.70
2019-06-09T01:04:09.325Z,53.60
2019-06-09T01:06:37.276Z,53.60
2019-06-09T01:09:08.804Z,53.80
2019-06-09T01:11:37.594Z,53.70
2019-06-09T01:14:09.485Z,53.80
2019-06-09T01:16:37.518Z,53.70
2019-06-09T01:19:08.066Z,53.80
2019-06-09T01:21:37.098Z,53.70
2019-06-09T01:24:07.474Z,53.80
2019-06-09T01:26:37.575Z,53.70
2019-06-09T01:29:07.107Z,53.60
2019-06-09T01:31:37.406Z,53.70
2019-06-09T01:34:05.378Z,53.70
2019-06-09T01:36:33.630Z,53.60
2019-06-09T01:39:01.902Z,53.60
2019-06-09T01:41:30.163Z,53.60
2019-06-09T01:43:58.450Z,53.70
2019-06-09T01:46:27.560Z,53.70
2019-06-09T01:48:57.874Z,53.70
2019-06-09T01:51:27.948Z,53.70
2019-06-09T01:53:57.208Z,53.70
2019-06-09T01:56:27.539Z,53.80
2019-06-09T01:58:57.389Z,53.70
2019-06-09T02:01:27.663Z,53.70
2019-06-09T02:03:57.313Z,53.60
2019-06-09T02:06:27.457Z,53.70
2019-06-09T02:08:57.894Z,53.60
2019-06-09T02:11:27.376Z,53.70
2019-06-09T02:13:57.464Z,53.50
2019-06-09T02:16:28.505Z,53.50
2019-06-09T02:18:57.520Z,53.70
2019-06-09T02:21:28.059Z,53.70
2019-06-09T02:23:57.511Z,53.70
2019-06-09T02:26:27.908Z,53.80
2019-06-09T02:28:58.312Z,53.80
2019-06-09T02:31:33.040Z,53.80
2019-06-09T02:33:59.296Z,53.70
2019-06-09T02:36:39.041Z,53.70
2019-06-09T02:38:55.863Z,53.60
2019-06-09T02:41:30.379Z,53.70
2019-06-09T02:43:54.123Z,53.60
2019-06-09T02:46:35.945Z,53.70
2019-06-09T02:49:04.394Z,53.70
2019-06-09T02:51:36.599Z,53.60
2019-06-09T02:54:04.096Z,53.50
2019-06-09T02:56:37.270Z,53.60
2019-06-09T02:59:02.415Z,53.70
2019-06-09T03:01:39.629Z,53.70
2019-06-09T03:04:10.304Z,53.80
2019-06-09T03:06:36.635Z,53.70
2019-06-09T03:09:02.724Z,53.70
2019-06-09T03:11:35.771Z,54.20
2019-06-09T03:14:02.943Z,53.50
2019-06-09T03:16:36.864Z,53.60
2019-06-09T03:19:02.219Z,53.50
2019-06-09T03:21:38.203Z,53.60
2019-06-09T03:24:02.973Z,54.30
2019-06-09T03:26:39.348Z,53.50
2019-06-09T03:29:01.948Z,53.60
2019-06-09T03:31:50.965Z,53.50
2019-06-09T03:37:16.577Z,53.70
2019-06-09T03:39:04.023Z,53.70
2019-06-09T03:41:38.952Z,53.80
2019-06-09T03:44:01.527Z,53.70
2019-06-09T03:46:38.156Z,53.60
2019-06-09T03:49:02.768Z,53.60
2019-06-09T03:51:40.619Z,53.60
2019-06-09T03:54:02.378Z,53.50
2019-06-09T03:56:39.740Z,53.50
2019-06-09T03:59:02.118Z,53.50
2019-06-09T04:01:38.595Z,53.50
2019-06-09T04:04:02.282Z,53.60
2019-06-09T04:06:43.171Z,53.50
2019-06-09T04:09:02.561Z,53.60
2019-06-09T04:11:38.656Z,53.70
2019-06-09T04:14:03.583Z,53.70
2019-06-09T04:16:32.328Z,53.80
2019-06-09T04:19:02.127Z,53.80
2019-06-09T04:21:39.824Z,53.70
2019-06-09T04:24:02.022Z,53.70
2019-06-09T04:26:34.545Z,53.90
2019-06-09T04:29:02.109Z,53.70
2019-06-09T04:31:36.178Z,53.90
2019-06-09T04:34:02.545Z,53.90
2019-06-09T04:36:42.360Z,53.90
2019-06-09T04:39:02.720Z,54.40
2019-06-09T04:41:36.520Z,55.70
2019-06-09T04:44:02.332Z,56.40
2019-06-09T04:46:35.813Z,55.80
2019-06-09T04:49:01.560Z,56.80
2019-06-09T04:51:33.878Z,55.70
2019-06-09T04:54:02.071Z,55.30
2019-06-09T04:56:36.086Z,55.00
2019-06-09T04:59:03.238Z,54.70
2019-06-09T05:01:35.936Z,54.50
2019-06-09T05:04:02.265Z,54.60
2019-06-09T05:06:41.333Z,54.90
2019-06-09T05:09:02.570Z,55.00
2019-06-09T05:11:34.929Z,54.50
2019-06-09T05:14:02.765Z,53.90
2019-06-09T05:16:33.125Z,53.30
2019-06-09T05:19:02.718Z,53.50
2019-06-09T05:21:33.776Z,53.80
2019-06-09T05:24:01.812Z,53.80
2019-06-09T05:26:33.754Z,54.00
2019-06-09T05:29:02.429Z,53.90
2019-06-09T05:31:35.407Z,54.00
2019-06-09T05:34:02.201Z,53.90
2019-06-09T05:36:33.373Z,53.90
2019-06-09T05:39:01.132Z,53.90
2019-06-09T05:41:32.446Z,54.00
2019-06-09T05:44:01.787Z,53.90
2019-06-09T05:46:30.926Z,53.90
2019-06-09T05:49:00.660Z,53.90
2019-06-09T05:51:30.329Z,53.90
2019-06-09T05:54:00.928Z,53.90
2019-06-09T05:56:30.814Z,53.80
2019-06-09T05:59:00.796Z,53.80
2019-06-09T06:01:31.808Z,53.70
2019-06-09T06:03:59.843Z,53.50
2019-06-09T06:06:31.036Z,53.60
2019-06-09T06:09:00.840Z,53.50
2019-06-09T06:11:31.156Z,53.50
2019-06-09T06:14:01.288Z,53.50
2019-06-09T06:16:31.412Z,53.50
2019-06-09T06:19:00.957Z,53.30
2019-06-09T06:21:31.488Z,53.20
2019-06-09T06:24:00.755Z,53.20
2019-06-09T06:26:30.629Z,53.40
2019-06-09T06:29:01.314Z,53.40
2019-06-09T06:31:31.501Z,53.40
2019-06-09T06:34:01.046Z,53.50
2019-06-09T06:36:30.791Z,53.20
2019-06-09T06:39:03.436Z,53.60
2019-06-09T06:41:31.718Z,53.70
2019-06-09T06:44:00.855Z,53.70
2019-06-09T06:46:31.245Z,53.70
2019-06-09T06:49:01.467Z,53.70
2019-06-09T06:51:31.519Z,53.70
2019-06-09T06:54:00.787Z,53.80
2019-06-09T06:56:31.653Z,53.70
2019-06-09T06:59:01.459Z,53.70
2019-06-09T07:01:30.734Z,53.80
2019-06-09T07:04:01.536Z,53.70
2019-06-09T07:06:30.864Z,53.70
2019-06-09T07:09:01.575Z,53.70
2019-06-09T07:11:31.629Z,53.60
2019-06-09T07:14:01.229Z,53.50
2019-06-09T07:16:31.225Z,53.50
2019-06-09T07:19:01.157Z,53.60
2019-06-09T07:21:31.163Z,53.60
2019-06-09T07:24:00.557Z,53.60
2019-06-09T07:26:29.003Z,53.60
2019-06-09T07:28:57.269Z,53.60
2019-06-09T07:31:25.527Z,53.70
2019-06-09T07:33:55.422Z,53.70
2019-06-09T07:36:23.925Z,53.90
2019-06-09T07:38:55.147Z,54.50
2019-06-09T07:41:22.175Z,53.90
2019-06-09T07:43:54.797Z,53.90
2019-06-09T07:46:21.408Z,53.70
2019-06-09T07:48:52.129Z,53.50
2019-06-09T07:51:21.244Z,53.60
2019-06-09T07:53:52.449Z,53.50
2019-06-09T07:56:20.700Z,53.70
2019-06-09T07:58:50.349Z,53.70
2019-06-09T08:01:19.112Z,53.70
2019-06-09T08:03:47.810Z,53.70
2019-06-09T08:06:16.219Z,53.70
2019-06-09T08:08:49.298Z,53.70
2019-06-09T08:11:14.471Z,53.70
2019-06-09T08:13:43.495Z,53.70
2019-06-09T08:16:12.740Z,53.70
2019-06-09T08:18:42.258Z,53.50
2019-06-09T08:21:11.714Z,53.50
2019-06-09T08:23:40.627Z,53.50
2019-06-09T08:26:11.241Z,53.50
2019-06-09T08:28:41.020Z,53.40
2019-06-09T08:31:10.991Z,53.70
2019-06-09T08:33:41.173Z,53.70
2019-06-09T08:36:10.917Z,53.70
2019-06-09T08:38:50.237Z,53.70
2019-06-09T08:41:11.472Z,53.80
2019-06-09T08:43:41.302Z,53.70
2019-06-09T08:46:11.575Z,53.80
2019-06-09T08:48:41.997Z,53.70
2019-06-09T08:51:10.882Z,53.70
2019-06-09T08:53:41.251Z,53.60
2019-06-09T08:56:11.334Z,53.60
2019-06-09T08:58:40.860Z,54.20
2019-06-09T09:01:11.628Z,53.70
2019-06-09T09:03:41.209Z,53.40
2019-06-09T09:06:11.064Z,53.50
2019-06-09T09:08:41.273Z,53.60
2019-06-09T09:11:11.506Z,53.60
2019-06-09T09:13:40.963Z,53.70
2019-06-09T09:16:11.644Z,53.70
2019-06-09T09:18:41.694Z,53.70
2019-06-09T09:21:11.696Z,53.70
2019-06-09T09:23:41.456Z,53.70
2019-06-09T09:26:11.336Z,53.60
2019-06-09T09:28:41.256Z,53.50
2019-06-09T09:31:11.313Z,53.50
2019-06-09T09:33:42.377Z,53.40
2019-06-09T09:36:11.464Z,53.40
2019-06-09T09:38:41.105Z,53.40
2019-06-09T09:41:10.778Z,53.40
2019-06-09T09:43:41.409Z,53.50
2019-06-09T09:46:11.099Z,53.50
2019-06-09T09:48:41.448Z,53.50
2019-06-09T09:51:11.208Z,53.50
2019-06-09T09:53:40.596Z,53.50
2019-06-09T09:56:11.508Z,53.50
2019-06-09T09:58:58.621Z,53.50
2019-06-09T10:01:26.932Z,53.50
2019-06-09T10:03:57.147Z,53.50
2019-06-09T10:06:25.179Z,53.40
2019-06-09T10:08:57.127Z,53.40
2019-06-09T10:11:23.421Z,53.50
2019-06-09T10:13:52.461Z,53.50
2019-06-09T10:16:21.684Z,53.50
2019-06-09T10:18:52.317Z,53.60
2019-06-09T10:21:22.056Z,53.70
2019-06-09T10:23:50.591Z,53.60
2019-06-09T10:26:21.512Z,53.70
2019-06-09T10:28:49.978Z,53.10
2019-06-09T10:31:20.681Z,53.60
2019-06-09T10:33:49.970Z,53.60
2019-06-09T10:36:18.326Z,53.60
2019-06-09T10:38:46.578Z,53.40
2019-06-09T10:41:14.834Z,53.00
2019-06-09T10:43:43.094Z,52.50
2019-06-09T10:46:11.758Z,52.10
2019-06-09T10:48:41.472Z,52.10
2019-06-09T10:51:12.034Z,52.90
2019-06-09T10:53:41.556Z,52.40
2019-06-09T10:56:10.178Z,52.60
2019-06-09T10:58:40.473Z,52.30
2019-06-09T11:01:08.418Z,52.30
2019-06-09T11:03:36.688Z,52.10
2019-06-09T11:06:04.958Z,52.50
2019-06-09T11:08:33.224Z,52.70
2019-06-09T11:11:02.254Z,52.70
2019-06-09T11:13:30.987Z,52.50
2019-06-09T11:16:04.005Z,52.20
2019-06-09T11:18:31.248Z,52.10
2019-06-09T11:21:02.786Z,53.10
2019-06-09T11:23:30.912Z,52.60
2019-06-09T11:26:01.517Z,52.50
2019-06-09T11:28:31.870Z,52.70
2019-06-09T11:31:00.546Z,52.80
2019-06-09T11:33:31.815Z,53.20
2019-06-09T11:36:01.942Z,53.30
2019-06-09T11:38:31.226Z,53.30
2019-06-09T11:41:01.700Z,53.40
2019-06-09T11:43:28.972Z,53.50
2019-06-09T11:45:57.223Z,53.50
2019-06-09T11:48:25.495Z,53.60
2019-06-09T11:50:54.963Z,53.70
2019-06-09T11:53:23.262Z,53.70
2019-06-09T11:55:52.478Z,53.70
2019-06-09T11:58:27.212Z,53.90
2019-06-09T12:00:54.147Z,53.90
2019-06-09T12:03:22.874Z,53.90
2019-06-09T12:05:52.149Z,53.90
2019-06-09T12:08:21.949Z,53.90
2019-06-09T12:10:55.218Z,53.90
2019-06-09T12:13:22.522Z,53.90
2019-06-09T12:15:51.851Z,53.90
2019-06-09T12:18:21.853Z,53.90
2019-06-09T12:20:50.992Z,53.70
2019-06-09T12:23:21.533Z,53.70
2019-06-09T12:25:51.174Z,53.80
2019-06-09T12:28:21.915Z,53.90
2019-06-09T12:30:51.468Z,53.80
2019-06-09T12:33:21.694Z,53.80
2019-06-09T12:35:51.731Z,53.90
2019-06-09T12:38:21.378Z,53.80
2019-06-09T12:41:07.501Z,53.80
2019-06-09T12:43:21.639Z,53.90
2019-06-09T12:45:51.580Z,54.10
2019-06-09T12:48:19.746Z,53.20
2019-06-09T12:50:48.271Z,52.60
2019-06-09T12:53:16.539Z,52.30
2019-06-09T12:55:44.812Z,52.60
2019-06-09T12:58:14.335Z,52.90
2019-06-09T13:00:42.602Z,53.00
2019-06-09T13:03:12.707Z,53.00
2019-06-09T13:05:41.027Z,53.00
2019-06-09T13:08:11.414Z,53.00
2019-06-09T13:10:41.441Z,53.00
2019-06-09T13:13:11.806Z,53.00
2019-06-09T13:15:39.255Z,53.20
2019-06-09T13:18:08.085Z,53.20
2019-06-09T13:20:37.558Z,53.30
2019-06-09T13:23:06.938Z,53.20
2019-06-09T13:25:35.758Z,53.10
2019-06-09T13:28:04.818Z,53.20
2019-06-09T13:30:34.224Z,53.20
2019-06-09T13:33:04.395Z,53.20
2019-06-09T13:35:33.054Z,53.20
2019-06-09T13:38:02.511Z,53.20
2019-06-09T13:40:31.662Z,53.20
2019-06-09T13:43:01.070Z,53.20
2019-06-09T13:45:31.950Z,53.20
2019-06-09T13:48:01.579Z,53.20
2019-06-09T13:50:34.047Z,53.30
2019-06-09T13:53:00.595Z,53.20
2019-06-09T13:55:29.106Z,53.30
2019-06-09T13:57:57.707Z,53.40
2019-06-09T14:00:27.442Z,53.40
2019-06-09T14:02:55.703Z,53.30
2019-06-09T14:05:25.103Z,53.30
2019-06-09T14:07:53.819Z,53.30
2019-06-09T14:10:22.379Z,53.40
2019-06-09T14:12:52.056Z,52.00
2019-06-09T14:15:25.418Z,51.10
2019-06-09T14:17:51.545Z,51.30
2019-06-09T14:20:21.424Z,51.50
2019-06-09T14:22:49.815Z,51.50
2019-06-09T14:25:18.075Z,51.30
2019-06-09T14:27:46.354Z,49.90
2019-06-09T14:30:18.755Z,49.50
2019-06-09T14:32:46.658Z,49.30
2019-06-09T14:35:17.398Z,49.20
2019-06-09T14:37:45.062Z,48.90
2019-06-09T14:40:17.613Z,48.90
2019-06-09T14:42:44.377Z,49.30
2019-06-09T14:45:17.223Z,48.70
2019-06-09T14:47:43.163Z,48.40
2019-06-09T14:50:13.518Z,47.90
2019-06-09T14:52:41.415Z,47.50
2019-06-09T14:55:11.654Z,47.50
2019-06-09T14:57:41.363Z,46.90
2019-06-09T15:00:12.925Z,45.60
2019-06-09T15:02:41.496Z,45.40
2019-06-09T15:05:14.093Z,46.40
2019-06-09T15:07:41.840Z,47.20
2019-06-09T15:10:12.843Z,47.80
2019-06-09T15:12:45.271Z,49.20
2019-06-09T15:15:13.131Z,49.70
2019-06-09T15:17:41.222Z,49.90
2019-06-09T15:20:13.422Z,50.60
2019-06-09T15:22:40.991Z,51.20
2019-06-09T15:25:13.335Z,52.10
2019-06-09T15:27:41.489Z,48.60
2019-06-09T15:30:12.595Z,48.70
2019-06-09T15:32:39.491Z,47.50
2019-06-09T15:35:14.243Z,48.90
2019-06-09T15:37:41.709Z,51.00
2019-06-09T15:40:11.304Z,50.70
2019-06-09T15:42:53.994Z,46.90
2019-06-09T15:45:12.123Z,45.90
2019-06-09T15:47:43.775Z,40.40
2019-06-09T15:50:11.655Z,41.40
2019-06-09T15:52:41.060Z,43.60
2019-06-09T15:55:11.031Z,42.80
2019-06-09T15:57:41.190Z,41.50
2019-06-09T16:00:13.059Z,43.10
2019-06-09T16:02:41.474Z,42.40
2019-06-09T16:05:11.573Z,41.60
2019-06-09T16:07:40.952Z,40.70
2019-06-09T16:10:09.318Z,40.90
2019-06-09T16:12:37.578Z,40.50
2019-06-09T16:15:07.314Z,40.50
2019-06-09T16:17:35.581Z,40.20
2019-06-09T16:20:05.988Z,40.40
2019-06-09T16:22:34.378Z,41.20
2019-06-09T16:25:02.914Z,40.50
2019-06-09T16:27:48.607Z,41.00
2019-06-09T16:30:08.947Z,38.00
2019-06-09T16:32:31.453Z,41.10
2019-06-09T16:35:00.878Z,40.40
2019-06-09T16:37:31.255Z,41.90
2019-06-09T16:40:00.899Z,41.80
2019-06-09T16:42:29.539Z,41.60
2019-06-09T16:44:57.794Z,41.50
2019-06-09T16:47:27.424Z,41.80
2019-06-09T16:49:56.048Z,42.30
2019-06-09T16:52:26.421Z,43.30
2019-06-09T16:54:54.299Z,43.60
2019-06-09T16:57:24.112Z,44.00
2019-06-09T16:59:52.809Z,43.90
2019-06-09T17:02:23.052Z,43.90
2019-06-09T17:04:52.124Z,43.90
2019-06-09T17:07:40.560Z,44.00
2019-06-09T17:10:08.351Z,44.10
2019-06-09T17:12:36.650Z,43.50
2019-06-09T17:15:04.929Z,44.10
2019-06-09T17:17:35.076Z,43.40
2019-06-09T17:20:03.940Z,42.80
2019-06-09T17:22:36.758Z,44.00
2019-06-09T17:25:02.193Z,44.10
2019-06-09T17:27:31.543Z,44.20
2019-06-09T17:30:02.447Z,44.20
2019-06-09T17:32:32.802Z,44.20
2019-06-09T17:35:00.715Z,44.30
2019-06-09T17:37:31.613Z,44.20
2019-06-09T17:40:01.423Z,43.60
2019-06-09T17:42:31.544Z,44.10
2019-06-09T17:45:00.959Z,44.10
2019-06-09T17:47:32.865Z,44.20
2019-06-09T17:50:01.557Z,44.30
2019-06-09T17:52:32.428Z,44.30
2019-06-09T17:55:00.876Z,43.80
2019-06-09T17:57:35.253Z,43.80
2019-06-09T18:00:01.683Z,44.20
2019-06-09T18:02:35.294Z,42.70
2019-06-09T18:04:59.479Z,42.90
2019-06-09T18:07:27.752Z,43.50
2019-06-09T18:09:56.004Z,44.00
2019-06-09T18:12:24.363Z,44.40
2019-06-09T18:14:52.618Z,44.80
2019-06-09T18:17:21.154Z,45.40
2019-06-09T18:19:51.835Z,45.90
2019-06-09T18:22:19.643Z,46.40
2019-06-09T18:24:47.902Z,46.70
2019-06-09T18:27:16.166Z,47.10
2019-06-09T18:30:08.252Z,47.30
2019-06-09T18:32:14.910Z,47.70
2019-06-09T18:34:44.443Z,47.90
2019-06-09T18:37:12.710Z,48.10
2019-06-09T18:39:42.957Z,48.10
2019-06-09T18:42:11.918Z,48.10
2019-06-09T18:44:55.259Z,48.20
2019-06-09T18:47:11.071Z,48.30
2019-06-09T18:49:41.440Z,48.80
2019-06-09T18:52:11.456Z,49.00
2019-06-09T18:54:41.571Z,49.40
2019-06-09T18:57:11.854Z,49.70
2019-06-09T18:59:41.439Z,49.90
2019-06-09T19:02:11.235Z,50.10
2019-06-09T19:04:39.770Z,50.00
2019-06-09T19:07:08.026Z,49.60
2019-06-09T19:09:38.550Z,49.40
2019-06-09T19:12:06.855Z,49.10
2019-06-09T19:14:35.552Z,49.20
2019-06-09T19:17:04.431Z,49.90
2019-06-09T19:19:34.075Z,49.00
2019-06-09T19:22:02.674Z,49.10
2019-06-09T19:24:32.993Z,49.10
2019-06-09T19:27:02.455Z,49.10
2019-06-09T19:29:32.151Z,49.20
2019-06-09T19:32:00.831Z,49.20
2019-06-09T19:34:30.853Z,49.20
2019-06-09T19:36:59.090Z,49.10
2019-06-09T19:39:27.355Z,49.20
2019-06-09T19:41:55.610Z,49.20
2019-06-09T19:44:23.879Z,49.20
2019-06-09T19:46:52.142Z,49.20
2019-06-09T19:49:24.342Z,49.20
2019-06-09T19:51:51.707Z,49.40
2019-06-09T19:54:21.518Z,49.30
2019-06-09T19:56:51.631Z,49.30
2019-06-09T19:59:22.196Z,49.20
2019-06-09T20:01:50.830Z,49.30
2019-06-09T20:04:19.234Z,49.30
2019-06-09T20:06:48.170Z,49.30
2019-06-09T20:09:16.503Z,49.50
2019-06-09T20:11:45.371Z,49.50
2019-06-09T20:14:15.538Z,49.50
2019-06-09T20:16:45.860Z,49.50
2019-06-09T20:19:14.843Z,50.20
2019-06-09T20:21:44.275Z,49.70
2019-06-09T20:24:13.346Z,49.60
2019-06-09T20:26:46.669Z,49.60
2019-06-09T20:29:12.163Z,49.60
2019-06-09T20:31:42.283Z,49.70
2019-06-09T20:34:11.154Z,49.80
2019-06-09T20:36:42.174Z,46.70
2019-06-09T20:39:11.353Z,48.10
2019-06-09T20:41:44.411Z,47.70
2019-06-09T20:44:11.599Z,49.00
2019-06-09T20:46:40.687Z,45.80
2019-06-09T20:49:10.044Z,47.60
2019-06-09T20:51:39.787Z,47.70
2019-06-09T20:54:08.303Z,47.50
2019-06-09T20:56:36.573Z,47.10
2019-06-09T20:59:04.926Z,47.50
2019-06-09T21:01:33.202Z,46.90
2019-06-09T21:04:02.893Z,46.60
2019-06-09T21:06:32.442Z,46.40
2019-06-09T21:09:01.525Z,47.80
2019-06-09T21:11:31.615Z,46.10
2019-06-09T21:14:01.302Z,45.20
2019-06-09T21:16:31.419Z,47.80
2019-06-09T21:19:00.710Z,48.00
2019-06-09T21:21:29.391Z,48.00
2019-06-09T21:23:57.727Z,47.90
2019-06-09T21:26:25.993Z,47.80
2019-06-09T21:28:55.474Z,47.80
2019-06-09T21:31:24.761Z,47.80
2019-06-09T21:33:53.250Z,47.90
2019-06-09T21:36:21.583Z,48.50
2019-06-09T21:38:51.313Z,47.90
2019-06-09T21:41:20.802Z,48.00
2019-06-09T21:43:52.324Z,47.90
2019-06-09T21:46:29.376Z,48.10
2019-06-09T21:48:53.602Z,48.10
2019-06-09T21:51:21.267Z,48.30
2019-06-09T21:53:51.197Z,48.40
2019-06-09T21:56:21.374Z,48.50
2019-06-09T21:58:49.314Z,48.50
2019-06-09T22:01:18.152Z,48.60
2019-06-09T22:03:47.680Z,48.50
2019-06-09T22:06:16.161Z,48.60
2019-06-09T22:08:45.882Z,48.60
2019-06-09T22:11:14.379Z,48.80
2019-06-09T22:13:42.638Z,48.50
2019-06-09T22:16:11.218Z,48.50
2019-06-09T22:18:40.898Z,48.80
2019-06-09T22:21:11.718Z,48.70
2019-06-09T22:23:41.549Z,48.50
2019-06-09T22:26:11.757Z,48.80
2019-06-09T22:28:39.479Z,48.80
2019-06-09T22:31:07.741Z,48.70
2019-06-09T22:33:35.998Z,48.80
2019-06-09T22:36:04.256Z,48.80
2019-06-09T22:38:32.531Z,48.90
2019-06-09T22:41:02.462Z,48.80
2019-06-09T22:43:31.287Z,49.00
2019-06-09T22:46:01.245Z,48.90
2019-06-09T22:48:31.512Z,48.80
2019-06-09T22:51:02.048Z,48.80
2019-06-09T22:53:30.737Z,49.40
2019-06-09T22:56:01.615Z,48.90
2019-06-09T22:58:31.257Z,48.90
2019-06-09T23:01:01.571Z,49.00
2019-06-09T23:03:30.756Z,49.00
2019-06-09T23:06:03.238Z,49.00
2019-06-09T23:08:30.874Z,49.00
2019-06-09T23:11:01.939Z,49.00
2019-06-09T23:13:31.293Z,48.90
2019-06-09T23:15:59.633Z,49.10
2019-06-09T23:18:30.558Z,49.00
2019-06-09T23:20:59.357Z,48.90
2019-06-09T23:23:28.283Z,49.10
2019-06-09T23:25:57.731Z,49.10
2019-06-09T23:28:26.954Z,49.00
2019-06-09T23:30:56.858Z,49.10
2019-06-09T23:33:25.252Z,49.00
2019-06-09T23:35:54.755Z,49.20
2019-06-09T23:38:23.167Z,49.20
2019-06-09T23:40:51.429Z,49.10
2019-06-09T23:43:21.316Z,49.20
2019-06-09T23:45:53.266Z,49.10
2019-06-09T23:48:21.621Z,49.00
2019-06-09T23:50:51.529Z,49.20
2019-06-09T23:53:21.669Z,49.00
2019-06-09T23:55:51.718Z,49.00
2019-06-09T23:58:21.979Z,49.00
